createdAt,value
2023-05-08T00:02:10.169Z,101783.89
2023-05-08T00:04:38.072Z,101786.50
2023-05-08T00:07:05.894Z,101786.29
2023-05-08T00:09:33.672Z,101786.39
2023-05-08T00:12:01.467Z,101785.89
2023-05-08T00:14:29.226Z,101784.61
2023-05-08T00:16:57.197Z,101789.42
2023-05-08T00:19:25.027Z,101788.85
2023-05-08T00:21:52.874Z,101791.72
2023-05-08T00:24:20.689Z,101790.50
2023-05-08T00:26:48.491Z,101793.95
2023-05-08T00:29:16.221Z,101798.66
2023-05-08T00:31:44.173Z,101801.90
2023-05-08T00:34:12.082Z,101802.17
2023-05-08T00:36:39.926Z,101800.56
2023-05-08T00:39:08.089Z,101803.83
2023-05-08T00:41:35.924Z,101807.44
2023-05-08T00:44:03.749Z,101809.86
2023-05-08T00:46:32.467Z,101812.99
2023-05-08T00:49:00.880Z,101809.55
2023-05-08T00:51:29.428Z,101810.36
2023-05-08T00:53:57.765Z,101812.77
2023-05-08T00:56:26.912Z,101814.59
2023-05-08T00:58:55.285Z,101816.79
2023-05-08T01:01:23.775Z,101814.20
2023-05-08T01:03:51.882Z,101815.67
2023-05-08T01:06:19.762Z,101820.89
2023-05-08T01:08:47.483Z,101821.86
2023-05-08T01:11:28.203Z,101827.15
2023-05-08T01:14:02.784Z,101828.77
2023-05-08T01:17:06.939Z,101830.34
2023-05-08T01:19:57.639Z,101835.55
2023-05-08T01:23:02.795Z,101840.65
2023-05-08T01:26:08.934Z,101840.48
2023-05-08T01:28:58.760Z,101842.45
2023-05-08T01:31:48.030Z,101841.39
2023-05-08T01:34:23.748Z,101842.10
2023-05-08T01:37:11.081Z,101847.64
2023-05-08T01:39:48.122Z,101846.84
2023-05-08T01:42:39.157Z,101845.84
2023-05-08T01:45:31.139Z,101845.38
2023-05-08T01:48:11.303Z,101852.48
2023-05-08T01:50:54.030Z,101851.81
2023-05-08T01:53:25.897Z,101852.55
2023-05-08T01:55:58.005Z,101850.31
2023-05-08T01:58:28.266Z,101854.17
2023-05-08T02:00:57.562Z,101853.84
2023-05-08T02:03:26.362Z,101854.90
2023-05-08T02:05:58.839Z,101853.23
2023-05-08T02:08:28.973Z,101855.36
2023-05-08T02:10:58.969Z,101854.36
2023-05-08T02:13:28.772Z,101859.24
2023-05-08T02:15:58.187Z,101862.54
2023-05-08T02:18:28.529Z,101861.48
2023-05-08T02:20:57.378Z,101867.86
2023-05-08T02:23:26.843Z,101868.65
2023-05-08T02:25:55.990Z,101868.40
2023-05-08T02:28:25.134Z,101869.47
2023-05-08T02:30:53.751Z,101863.58
2023-05-08T02:33:22.065Z,101865.34
2023-05-08T02:35:52.282Z,101867.46
2023-05-08T02:38:21.634Z,101869.20
2023-05-08T02:41:00.968Z,101867.67
2023-05-08T02:43:29.266Z,101869.09
2023-05-08T02:45:57.169Z,101871.88
2023-05-08T02:48:31.225Z,101869.27
2023-05-08T02:51:21.624Z,101871.02
2023-05-08T02:54:04.806Z,101866.48
2023-05-08T02:56:58.864Z,101866.39
2023-05-08T02:59:37.352Z,101866.05
2023-05-08T03:02:22.217Z,101871.11
2023-05-08T03:04:55.338Z,101871.33
2023-05-08T03:07:26.261Z,101876.63
2023-05-08T03:10:03.121Z,101875.54
2023-05-08T03:12:34.706Z,101877.95
2023-05-08T03:15:14.581Z,101882.56
2023-05-08T03:17:46.287Z,101881.80
2023-05-08T03:20:18.266Z,101881.59
2023-05-08T03:22:48.346Z,101884.27
2023-05-08T03:25:19.582Z,101879.91
2023-05-08T03:27:49.172Z,101883.40
2023-05-08T03:30:18.528Z,101889.89
2023-05-08T03:32:57.134Z,101888.07
2023-05-08T03:35:27.178Z,101895.02
2023-05-08T03:37:55.485Z,101899.80
2023-05-08T03:40:23.693Z,101899.60
2023-05-08T03:42:53.129Z,101897.16
2023-05-08T03:45:21.001Z,101896.36
2023-05-08T03:47:49.408Z,101902.52
2023-05-08T03:50:17.660Z,101897.77
2023-05-08T03:52:46.114Z,101898.30
2023-05-08T03:55:14.132Z,101896.30
2023-05-08T03:57:50.779Z,101893.34
2023-05-08T04:00:41.816Z,101896.42
2023-05-08T04:03:20.892Z,101895.17
2023-05-08T04:06:16.050Z,101901.11
2023-05-08T04:09:00.475Z,101903.46
2023-05-08T04:11:54.660Z,101907.45
2023-05-08T04:14:26.268Z,101910.84
2023-05-08T04:17:00.614Z,101915.21
2023-05-08T04:19:33.401Z,101915.83
2023-05-08T04:22:06.709Z,101920.73
2023-05-08T04:24:40.715Z,101919.04
2023-05-08T04:27:10.899Z,101927.02
2023-05-08T04:29:39.451Z,101926.23
2023-05-08T04:32:08.494Z,101925.51
2023-05-08T04:34:36.850Z,101928.72
2023-05-08T04:37:08.022Z,101929.88
2023-05-08T04:39:35.903Z,101931.45
2023-05-08T04:42:04.917Z,101936.17
2023-05-08T04:44:33.959Z,101937.16
2023-05-08T04:47:01.981Z,101937.27
2023-05-08T04:49:29.767Z,101941.84
2023-05-08T04:51:57.801Z,101945.30
2023-05-08T04:54:25.688Z,101947.65
2023-05-08T04:56:53.578Z,101942.34
2023-05-08T04:59:21.552Z,101946.17
2023-05-08T05:01:49.508Z,101946.90
2023-05-08T05:04:17.736Z,101949.65
2023-05-08T05:06:45.696Z,101953.73
2023-05-08T05:09:13.546Z,101952.73
2023-05-08T05:11:41.909Z,101959.53
2023-05-08T05:14:09.680Z,101955.02
2023-05-08T05:16:38.203Z,101957.83
2023-05-08T05:19:06.424Z,101965.11
2023-05-08T05:21:34.763Z,101963.58
2023-05-08T05:24:03.501Z,101967.47
2023-05-08T05:26:31.820Z,101963.64
2023-05-08T05:29:00.009Z,101964.38
2023-05-08T05:31:29.130Z,101964.66
2023-05-08T05:33:57.482Z,101964.36
2023-05-08T05:36:26.183Z,101960.84
2023-05-08T05:38:54.101Z,101961.29
2023-05-08T05:41:22.578Z,101966.55
2023-05-08T05:43:50.382Z,101968.55
2023-05-08T05:46:18.804Z,101971.12
2023-05-08T05:48:47.347Z,101975.95
2023-05-08T05:51:15.734Z,101977.08
2023-05-08T05:53:43.939Z,101976.55
2023-05-08T05:56:11.960Z,101974.77
2023-05-08T05:58:40.993Z,101978.73
2023-05-08T06:01:09.747Z,101974.08
2023-05-08T06:03:37.978Z,101976.43
2023-05-08T06:06:06.154Z,101977.77
2023-05-08T06:08:35.381Z,101978.01
2023-05-08T06:11:03.877Z,101977.59
2023-05-08T06:13:32.022Z,101977.45
2023-05-08T06:16:00.179Z,101976.16
2023-05-08T06:18:28.480Z,101979.04
2023-05-08T06:21:00.151Z,101977.11
2023-05-08T06:23:28.248Z,101976.30
2023-05-08T06:25:56.065Z,101972.60
2023-05-08T06:28:26.213Z,101972.61
2023-05-08T06:30:54.383Z,101974.27
2023-05-08T06:33:23.562Z,101974.64
2023-05-08T06:35:52.702Z,101973.31
2023-05-08T06:38:20.673Z,101972.69
2023-05-08T06:40:50.169Z,101972.09
2023-05-08T06:43:17.803Z,101967.61
2023-05-08T06:45:47.008Z,101966.40
2023-05-08T06:48:14.870Z,101969.34
2023-05-08T06:50:43.393Z,101969.30
2023-05-08T06:53:12.714Z,101971.48
2023-05-08T06:55:43.743Z,101969.87
2023-05-08T06:58:11.527Z,101967.34
2023-05-08T07:00:39.382Z,101966.39
2023-05-08T07:03:07.467Z,101959.48
2023-05-08T07:05:35.580Z,101961.45
2023-05-08T07:08:03.429Z,101959.42
2023-05-08T07:10:31.243Z,101966.08
2023-05-08T07:12:59.072Z,101965.45
2023-05-08T07:15:27.273Z,101971.29
2023-05-08T07:17:55.252Z,101968.64
2023-05-08T07:20:24.778Z,101969.33
2023-05-08T07:22:54.723Z,101971.81
2023-05-08T07:25:23.337Z,101975.14
2023-05-08T07:27:51.076Z,101973.25
2023-05-08T07:30:19.005Z,101973.83
2023-05-08T07:32:46.941Z,101971.15
2023-05-08T07:35:15.894Z,101972.00
2023-05-08T07:37:44.614Z,101973.70
2023-05-08T07:40:12.477Z,101974.57
2023-05-08T07:42:42.101Z,101974.48
2023-05-08T07:45:12.393Z,101975.34
2023-05-08T07:47:49.534Z,101971.33
2023-05-08T07:50:17.718Z,101973.63
2023-05-08T07:52:46.551Z,101977.64
2023-05-08T07:55:15.862Z,101973.49
2023-05-08T07:57:44.395Z,101971.13
2023-05-08T08:00:15.065Z,101973.54
2023-05-08T08:02:44.303Z,101975.94
2023-05-08T08:05:12.957Z,101970.28
2023-05-08T08:07:41.056Z,101972.20
2023-05-08T08:10:09.236Z,101966.48
2023-05-08T08:12:37.432Z,101970.66
2023-05-08T08:15:05.999Z,101970.72
2023-05-08T08:17:33.911Z,101970.66
2023-05-08T08:20:01.794Z,101969.65
2023-05-08T08:22:29.610Z,101966.55
2023-05-08T08:24:57.472Z,101961.29
2023-05-08T08:27:25.258Z,101957.92
2023-05-08T08:30:04.487Z,101953.15
2023-05-08T08:32:36.328Z,101953.80
2023-05-08T08:35:04.583Z,101951.67
2023-05-08T08:37:32.476Z,101952.55
2023-05-08T08:40:00.522Z,101954.14
2023-05-08T08:42:29.103Z,101953.48
2023-05-08T08:44:56.994Z,101946.69
2023-05-08T08:47:37.045Z,101943.64
2023-05-08T08:50:05.703Z,101940.64
2023-05-08T08:52:47.551Z,101934.61
2023-05-08T08:55:18.053Z,101935.52
2023-05-08T08:57:51.361Z,101937.19
2023-05-08T09:00:20.502Z,101935.29
2023-05-08T09:02:48.829Z,101945.29
2023-05-08T09:05:17.924Z,101944.38
2023-05-08T09:07:45.944Z,101936.18
2023-05-08T09:10:15.802Z,101936.95
2023-05-08T09:12:45.133Z,101936.29
2023-05-08T09:15:13.192Z,101936.42
2023-05-08T09:17:41.345Z,101933.84
2023-05-08T09:20:09.683Z,101930.98
2023-05-08T09:22:37.923Z,101928.32
2023-05-08T09:25:07.168Z,101930.73
2023-05-08T09:27:36.413Z,101925.45
2023-05-08T09:30:12.342Z,101922.64
2023-05-08T09:32:42.817Z,101915.15
2023-05-08T09:35:12.540Z,101913.70
2023-05-08T09:37:42.995Z,101917.97
2023-05-08T09:40:21.999Z,101914.86
2023-05-08T09:42:51.019Z,101911.14
2023-05-08T09:45:31.590Z,101910.98
2023-05-08T09:47:59.825Z,101906.01
2023-05-08T09:50:27.852Z,101907.35
2023-05-08T09:52:55.940Z,101905.87
2023-05-08T09:55:24.449Z,101901.17
2023-05-08T09:57:54.747Z,101896.23
2023-05-08T10:00:23.655Z,101900.30
2023-05-08T10:03:04.136Z,101898.09
2023-05-08T10:05:35.569Z,101896.36
2023-05-08T10:08:20.032Z,101896.49
2023-05-08T10:10:47.961Z,101889.10
2023-05-08T10:13:16.127Z,101884.23
2023-05-08T10:15:44.965Z,101883.73
2023-05-08T10:18:16.309Z,101881.04
2023-05-08T10:20:48.787Z,101879.31
2023-05-08T10:23:18.759Z,101876.66
2023-05-08T10:25:55.912Z,101874.17
2023-05-08T10:28:33.486Z,101871.59
2023-05-08T10:31:05.341Z,101876.60
2023-05-08T10:33:35.868Z,101873.56
2023-05-08T10:36:06.017Z,101877.96
2023-05-08T10:38:34.785Z,101874.34
2023-05-08T10:41:02.853Z,101871.71
2023-05-08T10:43:33.854Z,101871.04
2023-05-08T10:46:09.773Z,101874.33
2023-05-08T10:48:51.822Z,101867.86
2023-05-08T10:51:42.014Z,101869.61
2023-05-08T10:54:34.388Z,101861.98
2023-05-08T10:57:12.558Z,101867.17
2023-05-08T10:59:45.270Z,101862.88
2023-05-08T11:02:15.819Z,101861.77
2023-05-08T11:04:44.059Z,101853.84
2023-05-08T11:07:11.857Z,101857.17
2023-05-08T11:09:43.076Z,101858.23
2023-05-08T11:12:23.010Z,101854.84
2023-05-08T11:15:00.360Z,101857.50
2023-05-08T11:17:28.719Z,101858.38
2023-05-08T11:19:57.593Z,101858.70
2023-05-08T11:22:29.409Z,101859.82
2023-05-08T11:25:01.263Z,101857.17
2023-05-08T11:27:39.461Z,101856.88
2023-05-08T11:30:39.493Z,101852.60
2023-05-08T11:33:07.235Z,101843.77
2023-05-08T11:35:44.324Z,101839.93
2023-05-08T11:38:19.225Z,101841.82
2023-05-08T11:40:48.587Z,101845.35
2023-05-08T11:43:36.593Z,101840.93
2023-05-08T11:46:16.600Z,101839.94
2023-05-08T11:48:45.069Z,101834.97
2023-05-08T11:51:13.808Z,101832.25
2023-05-08T11:53:43.675Z,101832.52
2023-05-08T11:56:11.533Z,101832.92
2023-05-08T11:58:39.300Z,101826.75
2023-05-08T12:01:07.621Z,101823.75
2023-05-08T12:03:36.397Z,101816.03
2023-05-08T12:06:04.370Z,101822.63
2023-05-08T12:08:32.103Z,101822.41
2023-05-08T12:11:00.153Z,101821.23
2023-05-08T12:13:29.505Z,101817.64
2023-05-08T12:15:59.749Z,101818.08
2023-05-08T12:18:30.690Z,101818.52
2023-05-08T12:21:00.631Z,101808.67
2023-05-08T12:23:29.776Z,101808.55
2023-05-08T12:26:01.725Z,101804.37
2023-05-08T12:28:32.185Z,101805.09
2023-05-08T12:31:02.082Z,101801.46
2023-05-08T12:33:31.214Z,101804.70
2023-05-08T12:35:59.213Z,101804.39
2023-05-08T12:38:27.881Z,101804.36
2023-05-08T12:40:56.157Z,101808.33
2023-05-08T12:43:36.585Z,101803.01
2023-05-08T12:46:05.028Z,101806.84
2023-05-08T12:48:32.911Z,101804.87
2023-05-08T12:51:05.149Z,101793.58
2023-05-08T12:53:33.586Z,101791.20
2023-05-08T12:56:04.255Z,101787.52
2023-05-08T12:58:34.350Z,101784.63
2023-05-08T13:01:12.810Z,101779.35
2023-05-08T13:03:41.563Z,101782.13
2023-05-08T13:06:20.996Z,101783.11
2023-05-08T13:08:57.263Z,101779.50
2023-05-08T13:11:33.087Z,101775.93
2023-05-08T13:14:01.037Z,101776.27
2023-05-08T13:16:28.951Z,101771.23
2023-05-08T13:18:56.691Z,101766.34
2023-05-08T13:21:27.070Z,101768.48
2023-05-08T13:23:56.657Z,101767.77
2023-05-08T13:26:25.699Z,101763.67
2023-05-08T13:28:56.165Z,101769.09
2023-05-08T13:31:24.389Z,101765.70
2023-05-08T13:33:52.142Z,101761.28
2023-05-08T13:36:20.959Z,101760.84
2023-05-08T13:38:48.923Z,101755.35
2023-05-08T13:41:16.719Z,101763.21
2023-05-08T13:43:45.476Z,101756.91
2023-05-08T13:46:13.508Z,101748.98
2023-05-08T13:48:41.261Z,101744.69
2023-05-08T13:51:08.922Z,101737.64
2023-05-08T13:53:37.971Z,101734.09
2023-05-08T13:56:06.465Z,101734.45
2023-05-08T13:58:34.230Z,101733.91
2023-05-08T14:01:13.888Z,101730.72
2023-05-08T14:03:49.538Z,101729.86
2023-05-08T14:06:17.215Z,101729.95
2023-05-08T14:08:47.265Z,101728.18
2023-05-08T14:11:17.343Z,101729.81
2023-05-08T14:13:45.081Z,101729.30
2023-05-08T14:16:14.441Z,101738.13
2023-05-08T14:18:42.277Z,101739.13
2023-05-08T14:21:09.921Z,101736.58
2023-05-08T14:23:39.208Z,101732.72
2023-05-08T14:26:06.928Z,101729.73
2023-05-08T14:28:34.600Z,101729.27
2023-05-08T14:31:02.493Z,101725.91
2023-05-08T14:33:30.249Z,101725.84
2023-05-08T14:35:58.020Z,101730.91
2023-05-08T14:38:25.673Z,101728.09
2023-05-08T14:40:56.327Z,101728.68
2023-05-08T14:43:24.356Z,101726.67
2023-05-08T14:45:52.049Z,101730.20
2023-05-08T14:48:19.715Z,101724.71
2023-05-08T14:50:47.453Z,101724.61
2023-05-08T14:53:15.346Z,101724.45
2023-05-08T14:55:43.655Z,101725.67
2023-05-08T14:58:11.735Z,101726.10
2023-05-08T15:00:39.708Z,101723.75
2023-05-08T15:03:07.588Z,101725.30
2023-05-08T15:05:36.873Z,101723.27
2023-05-08T15:08:05.661Z,101728.64
2023-05-08T15:10:33.316Z,101725.40
2023-05-08T15:13:01.245Z,101723.14
2023-05-08T15:15:28.917Z,101728.03
2023-05-08T15:17:56.681Z,101721.44
2023-05-08T15:20:24.538Z,101721.48
2023-05-08T15:22:52.311Z,101716.14
2023-05-08T15:25:20.233Z,101718.00
2023-05-08T15:27:52.618Z,101720.35
2023-05-08T15:30:21.102Z,101721.35
2023-05-08T15:32:48.941Z,101721.13
2023-05-08T15:35:17.035Z,101718.22
2023-05-08T15:37:44.688Z,101717.40
2023-05-08T15:40:12.948Z,101712.86
2023-05-08T15:42:40.692Z,101711.14
2023-05-08T15:45:10.279Z,101715.23
2023-05-08T15:47:38.029Z,101711.73
2023-05-08T15:50:06.384Z,101712.76
2023-05-08T15:52:34.165Z,101713.52
2023-05-08T15:55:01.909Z,101707.98
2023-05-08T15:57:29.600Z,101707.58
2023-05-08T15:59:57.599Z,101705.92
2023-05-08T16:02:25.595Z,101701.36
2023-05-08T16:04:53.336Z,101700.36
2023-05-08T16:07:21.077Z,101697.11
2023-05-08T16:09:48.723Z,101693.45
2023-05-08T16:12:17.271Z,101694.46
2023-05-08T16:14:45.253Z,101692.63
2023-05-08T16:17:13.145Z,101691.98
2023-05-08T16:19:40.896Z,101689.44
2023-05-08T16:22:08.556Z,101693.30
2023-05-08T16:24:36.179Z,101691.04
2023-05-08T16:27:04.009Z,101692.29
2023-05-08T16:29:31.657Z,101691.08
2023-05-08T16:31:59.475Z,101694.81
2023-05-08T16:34:27.360Z,101692.96
2023-05-08T16:36:55.161Z,101691.92
2023-05-08T16:39:23.070Z,101691.70
2023-05-08T16:41:50.751Z,101692.27
2023-05-08T16:44:18.483Z,101690.45
2023-05-08T16:46:46.203Z,101693.11
2023-05-08T16:49:14.188Z,101689.45
2023-05-08T16:51:42.609Z,101690.76
2023-05-08T16:54:10.303Z,101692.39
2023-05-08T16:56:37.930Z,101695.21
2023-05-08T16:59:08.556Z,101698.70
2023-05-08T17:01:37.397Z,101699.77
2023-05-08T17:04:05.368Z,101701.63
2023-05-08T17:06:33.057Z,101700.30
2023-05-08T17:09:00.857Z,101703.08
2023-05-08T17:11:28.666Z,101701.52
2023-05-08T17:13:56.366Z,101700.70
2023-05-08T17:16:24.108Z,101704.88
2023-05-08T17:18:51.805Z,101702.01
2023-05-08T17:21:20.710Z,101706.46
2023-05-08T17:23:49.181Z,101705.46
2023-05-08T17:26:16.896Z,101703.59
2023-05-08T17:28:44.659Z,101703.73
2023-05-08T17:31:13.212Z,101703.30
2023-05-08T17:33:40.909Z,101701.37
2023-05-08T17:36:09.156Z,101703.09
2023-05-08T17:38:43.276Z,101707.91
2023-05-08T17:41:11.917Z,101706.76
2023-05-08T17:43:40.029Z,101707.95
2023-05-08T17:46:08.191Z,101712.23
2023-05-08T17:48:36.254Z,101712.52
2023-05-08T17:51:04.402Z,101714.95
2023-05-08T17:53:32.778Z,101719.15
2023-05-08T17:56:00.600Z,101718.39
2023-05-08T17:58:28.601Z,101718.73
2023-05-08T18:00:57.139Z,101719.29
2023-05-08T18:03:25.008Z,101722.32
2023-05-08T18:05:52.922Z,101724.49
2023-05-08T18:08:20.768Z,101725.41
2023-05-08T18:10:48.637Z,101729.34
2023-05-08T18:13:16.342Z,101729.64
2023-05-08T18:15:44.449Z,101735.33
2023-05-08T18:18:12.165Z,101739.73
2023-05-08T18:20:40.069Z,101739.48
2023-05-08T18:23:08.639Z,101740.90
2023-05-08T18:25:37.087Z,101738.05
2023-05-08T18:28:05.025Z,101743.98
2023-05-08T18:30:36.292Z,101751.06
2023-05-08T18:33:04.289Z,101756.98
2023-05-08T18:35:32.045Z,101760.60
2023-05-08T18:37:59.735Z,101761.22
2023-05-08T18:40:27.588Z,101761.73
2023-05-08T18:42:56.025Z,101761.95
2023-05-08T18:45:24.907Z,101761.13
2023-05-08T18:47:54.228Z,101765.52
2023-05-08T18:50:22.146Z,101771.29
2023-05-08T18:52:51.084Z,101776.16
2023-05-08T18:55:20.135Z,101774.66
2023-05-08T18:57:47.883Z,101780.55
2023-05-08T19:00:16.563Z,101782.30
2023-05-08T19:02:46.756Z,101787.60
2023-05-08T19:05:14.484Z,101788.16
2023-05-08T19:07:42.759Z,101790.74
2023-05-08T19:10:11.480Z,101792.77
2023-05-08T19:12:39.727Z,101794.10
2023-05-08T19:15:09.418Z,101795.16
2023-05-08T19:17:37.984Z,101795.45
2023-05-08T19:20:06.441Z,101796.20
2023-05-08T19:22:35.845Z,101797.14
2023-05-08T19:25:04.533Z,101794.30
2023-05-08T19:27:32.275Z,101799.73
2023-05-08T19:30:00.131Z,101793.69
2023-05-08T19:32:28.741Z,101796.45
2023-05-08T19:34:57.480Z,101796.02
2023-05-08T19:37:25.334Z,101793.52
2023-05-08T19:39:53.202Z,101794.39
2023-05-08T19:42:21.482Z,101791.59
2023-05-08T19:44:49.478Z,101795.11
2023-05-08T19:47:17.467Z,101792.52
2023-05-08T19:49:45.277Z,101793.38
2023-05-08T19:52:12.998Z,101795.81
2023-05-08T19:54:40.834Z,101793.52
2023-05-08T19:57:08.603Z,101790.14
2023-05-08T19:59:36.799Z,101785.94
2023-05-08T20:02:04.547Z,101788.76
2023-05-08T20:04:36.969Z,101784.44
2023-05-08T20:07:16.068Z,101780.31
2023-05-08T20:09:46.204Z,101779.50
2023-05-08T20:12:14.101Z,101782.02
2023-05-08T20:14:42.415Z,101778.21
2023-05-08T20:17:10.322Z,101778.98
2023-05-08T20:19:38.203Z,101777.94
2023-05-08T20:22:06.237Z,101775.78
2023-05-08T20:24:33.989Z,101774.15
2023-05-08T20:27:02.579Z,101773.63
2023-05-08T20:29:30.277Z,101772.03
2023-05-08T20:31:58.133Z,101771.75
2023-05-08T20:34:25.804Z,101775.15
2023-05-08T20:36:53.600Z,101774.66
2023-05-08T20:39:21.495Z,101778.08
2023-05-08T20:41:49.156Z,101780.77
2023-05-08T20:44:19.125Z,101779.67
2023-05-08T20:46:46.794Z,101779.73
2023-05-08T20:49:14.598Z,101776.55
2023-05-08T20:51:42.275Z,101778.89
2023-05-08T20:54:10.163Z,101778.97
2023-05-08T20:56:37.861Z,101776.42
2023-05-08T20:59:05.644Z,101773.08
2023-05-08T21:01:33.434Z,101773.23
2023-05-08T21:04:01.368Z,101772.63
2023-05-08T21:06:29.629Z,101773.65
2023-05-08T21:08:57.809Z,101771.78
2023-05-08T21:11:25.893Z,101769.63
2023-05-08T21:13:53.599Z,101770.11
2023-05-08T21:16:22.192Z,101772.94
2023-05-08T21:18:51.076Z,101770.68
2023-05-08T21:21:22.893Z,101771.25
2023-05-08T21:23:50.930Z,101769.85
2023-05-08T21:26:20.009Z,101768.61
2023-05-08T21:28:47.904Z,101768.42
2023-05-08T21:31:15.614Z,101766.96
2023-05-08T21:33:43.317Z,101767.73
2023-05-08T21:36:10.938Z,101771.72
2023-05-08T21:38:38.954Z,101767.84
2023-05-08T21:41:08.333Z,101767.66
2023-05-08T21:43:36.365Z,101763.01
2023-05-08T21:46:05.769Z,101766.46
2023-05-08T21:48:34.128Z,101769.38
2023-05-08T21:51:02.403Z,101768.80
2023-05-08T21:53:30.219Z,101766.73
2023-05-08T21:55:59.184Z,101770.10
2023-05-08T21:58:26.918Z,101767.78
2023-05-08T22:00:55.493Z,101769.32
2023-05-08T22:03:24.647Z,101768.95
2023-05-08T22:05:52.499Z,101768.25
2023-05-08T22:08:20.198Z,101766.48
2023-05-08T22:10:47.970Z,101765.60
2023-05-08T22:13:15.702Z,101765.67
2023-05-08T22:15:43.442Z,101762.32
2023-05-08T22:18:11.327Z,101769.23
2023-05-08T22:20:39.089Z,101766.49
2023-05-08T22:23:06.799Z,101768.17
2023-05-08T22:25:34.590Z,101763.56
2023-05-08T22:28:02.285Z,101764.88
2023-05-08T22:30:30.038Z,101764.17
2023-05-08T22:32:58.151Z,101763.23
2023-05-08T22:35:27.733Z,101757.27
2023-05-08T22:37:57.268Z,101760.09
2023-05-08T22:40:25.726Z,101758.50
2023-05-08T22:42:55.806Z,101759.90
2023-05-08T22:45:23.718Z,101760.90
2023-05-08T22:47:51.563Z,101760.77
2023-05-08T22:50:19.482Z,101760.25
2023-05-08T22:52:47.220Z,101758.29
2023-05-08T22:55:15.868Z,101757.21
2023-05-08T22:57:44.292Z,101759.41
2023-05-08T23:00:12.567Z,101756.96
2023-05-08T23:02:40.247Z,101750.70
2023-05-08T23:05:08.497Z,101758.89
2023-05-08T23:07:36.188Z,101759.19
2023-05-08T23:10:03.993Z,101756.40
2023-05-08T23:12:31.967Z,101753.42
2023-05-08T23:14:59.611Z,101758.02
2023-05-08T23:17:27.389Z,101756.79
2023-05-08T23:19:55.094Z,101759.55
2023-05-08T23:22:22.745Z,101758.31
2023-05-08T23:24:50.488Z,101757.14
2023-05-08T23:27:18.119Z,101756.48
2023-05-08T23:29:45.895Z,101754.02
2023-05-08T23:32:14.618Z,101754.77
2023-05-08T23:34:43.139Z,101759.92
2023-05-08T23:37:10.867Z,101758.56
2023-05-08T23:39:41.510Z,101760.17
2023-05-08T23:42:09.384Z,101758.61
2023-05-08T23:44:37.312Z,101760.06
2023-05-08T23:47:05.116Z,101762.00
2023-05-08T23:49:32.907Z,101756.75
2023-05-08T23:52:01.293Z,101761.77
2023-05-08T23:54:28.950Z,101763.77
2023-05-08T23:56:56.668Z,101760.16
2023-05-08T23:59:24.397Z,101764.48
